Terminal Aerodrome Forecast
Issued by NWS Louisville, KY

Home | Current Version | Previous Version | Text Only | Print | Product List | Glossary On
Versions: 1 2 3 4 5 6 7 8 9 10 11 12 13 14 15 16 17
000
FTUS43 KLMK 231120
TAFSDF
TAF
KSDF 231120Z 2312/2418 10010KT 6SM -RA OVC040
     FM231400 11011KT 6SM -RA OVC025
     FM232300 09009KT P6SM -RA OVC035
     FM240600 09008KT P6SM VCSH OVC025
     FM240800 07006KT P6SM -RA OVC015=

USA.gov is the U.S. government's official web portal to all federal, state and local government web resources and services.